Archival Weather

Los Angeles Intl

Los Angeles, California (KLAX)

Report from: Thursday, September 21, 2023 10:53 PM PDT
Current time: Saturday, March 2, 2024 2:25 AM PST

Current weather – Weather history – Daily summaries
Weather forecast

Temperature17.8°C (64.0°F)
Dew point13.3°C (55.9°F)
Winds 5 kts (2.6 m/s, 5.8 mph) West-Southwest (250°)
Visibility10 mi. (16.1 km)
Clouds Sky clear
Altimeter29.97 in.Hg (1015 mB)
Relative humidity75 %
Density altitude496 ft. (151 m)
Sea-level pressure101.5 kPa (1015 mB, 29.96 in.Hg)
Max temp last 6 hours20.6°C (69.1°F)
Min temp last 6 hours17.8°C (64.0°F)
Remarks Automated weather observing station with precipitation discriminator
Pressure rising more slowly
Flight conditions Visual Meteorological Conditions
Raw dataKLAX 220553Z 25005KT 10SM CLR 18/13 A2997 RMK AO2 SLP146 T01780133 10206 20178 51009
An error has occurred. This application may no longer respond until reloaded. Reload 🗙